Time;durP1;ratioP1;P1;durP2;ratioP2;P2;SDS_P1;SDS_P2;PMS_P1;PMS_P2;Temp;Humidity;BMP_temperature;BMP_pressure;BME280_temperature;BME280_humidity;BME280_pressure;Samples;Min_cycle;Max_cycle;Signal;HPM_P1;HPM_P2
2022/10/10 00:01:24;;;;;;;7.05;5.38;;;;;;;8.35;96.39;100531.13;5050091;28;20585;-82
2022/10/10 00:03:52;;;;;;;9.35;5.43;;;;;;;8.28;96.16;100532.25;5046414;28;20056;-83
2022/10/10 00:06:19;;;;;;;6.82;5.22;;;;;;;8.31;96.65;100540.06;5049113;28;20147;-79
2022/10/10 00:08:46;;;;;;;7.60;5.47;;;;;;;8.27;97.15;100539.28;5048749;28;20085;-78
2022/10/10 00:11:15;;;;;;;10.63;5.60;;;;;;;8.26;96.98;100544.63;5045527;28;20053;-80
2022/10/10 00:13:42;;;;;;;8.63;5.50;;;;;;;8.21;97.47;100531.59;5049695;28;20416;-80
2022/10/10 00:16:10;;;;;;;8.70;5.65;;;;;;;8.20;97.57;100534.28;5049003;28;20091;-81
2022/10/10 00:18:37;;;;;;;7.90;5.80;;;;;;;8.02;97.75;100499.75;5056111;28;20132;-81
2022/10/10 00:21:04;;;;;;;6.75;5.10;;;;;;;8.11;97.91;100514.38;5054223;28;20064;-79
2022/10/10 00:23:31;;;;;;;7.03;5.40;;;;;;;8.14;98.21;100524.81;5056152;28;20529;-74
2022/10/10 00:25:57;;;;;;;7.22;5.50;;;;;;;8.09;98.40;100527.59;5066558;28;20035;-73
2022/10/10 00:28:24;;;;;;;7.63;5.13;;;;;;;8.06;98.69;100527.69;5071073;28;20116;-73
2022/10/10 00:30:51;;;;;;;10.68;5.93;;;;;;;7.86;99.04;100502.94;5069597;28;20055;-72
2022/10/10 00:33:17;;;;;;;10.32;6.25;;;;;;;7.98;99.24;100528.91;5067480;28;20025;-71
2022/10/10 00:35:44;;;;;;;7.43;6.13;;;;;;;7.94;99.67;100528.13;5065120;28;20040;-72
2022/10/10 00:38:12;;;;;;;11.25;6.20;;;;;;;7.89;100.00;100522.13;5067157;28;20108;-78
2022/10/10 00:40:46;;;;;;;8.55;6.18;;;;;;;7.77;100.00;100516.44;5059185;28;20121;-77
2022/10/10 00:43:14;;;;;;;9.52;5.43;;;;;;;7.68;100.00;100493.88;5050184;28;20100;-71
2022/10/10 00:45:43;;;;;;;9.13;5.57;;;;;;;7.84;100.00;100518.81;5058395;28;20037;-73
2022/10/10 00:48:15;;;;;;;10.43;5.30;;;;;;;7.85;100.00;100515.28;5052989;28;20167;-77
2022/10/10 00:50:47;;;;;;;6.70;5.38;;;;;;;7.73;100.00;100489.31;5048392;28;20128;-78
2022/10/10 00:53:16;;;;;;;8.13;5.32;;;;;;;7.86;100.00;100506.44;5047484;28;20048;-84
2022/10/10 00:55:44;;;;;;;9.05;4.80;;;;;;;7.88;100.00;100512.50;5052318;28;20051;-76
2022/10/10 00:58:12;;;;;;;8.35;5.25;;;;;;;7.71;100.00;100484.06;5051955;28;20112;-81
2022/10/10 01:00:39;;;;;;;7.47;5.18;;;;;;;7.81;100.00;100505.75;5055717;28;20063;-77
2022/10/10 01:03:06;;;;;;;6.97;5.10;;;;;;;7.89;100.00;100514.22;5056532;28;20072;-77
2022/10/10 01:05:33;;;;;;;6.07;5.07;;;;;;;7.88;100.00;100504.59;5059980;28;20063;-75
2022/10/10 01:08:02;;;;;;;6.22;5.00;;;;;;;7.78;100.00;100476.84;5051376;28;20060;-78
2022/10/10 01:10:34;;;;;;;5.82;4.65;;;;;;;7.97;100.00;100512.22;5047682;28;20056;-83
2022/10/10 01:13:27;;;;;;;8.90;4.72;;;;;;;7.91;99.94;100501.00;5045695;28;20053;-83
2022/10/10 01:16:06;;;;;;;8.82;5.43;;;;;;;7.94;99.47;100507.03;5042124;28;20049;-77
2022/10/10 01:18:42;;;;;;;9.35;5.50;;;;;;;7.70;100.00;100489.44;5048318;28;20057;-79
2022/10/10 01:21:11;;;;;;;10.23;5.53;;;;;;;7.66;100.00;100490.44;5044425;28;20045;-76
2022/10/10 01:24:01;;;;;;;9.18;4.93;;;;;;;7.74;100.00;100499.78;5045308;28;20051;-77
2022/10/10 01:26:51;;;;;;;8.68;5.35;;;;;;;7.65;100.00;100478.16;5049881;28;20056;-80
2022/10/10 01:29:34;;;;;;;12.65;6.30;;;;;;;7.62;100.00;100471.22;5052280;28;20135;-83
2022/10/10 01:32:18;;;;;;;10.93;4.97;;;;;;;7.67;100.00;100471.06;5053819;28;20052;-82
2022/10/10 01:34:57;;;;;;;10.18;5.70;;;;;;;7.74;100.00;100502.44;5048760;28;20124;-79
2022/10/10 01:37:54;;;;;;;9.48;5.57;;;;;;;7.67;100.00;100500.94;5048663;28;20152;-79
2022/10/10 01:40:32;;;;;;;9.13;5.35;;;;;;;7.71;100.00;100496.44;5048253;28;20396;-78
2022/10/10 01:43:02;;;;;;;8.68;5.50;;;;;;;7.71;100.00;100491.16;5051826;28;20485;-81
2022/10/10 01:45:30;;;;;;;7.60;5.03;;;;;;;7.69;100.00;100485.06;5049358;28;20481;-78
2022/10/10 01:48:01;;;;;;;7.30;5.38;;;;;;;7.68;100.00;100488.63;5051677;28;20051;-83
2022/10/10 01:50:32;;;;;;;9.88;5.93;;;;;;;7.37;100.00;100442.22;5052499;28;20053;-81
2022/10/10 01:53:13;;;;;;;7.95;6.28;;;;;;;7.48;100.00;100488.41;5046926;28;20056;-82
2022/10/10 01:55:54;;;;;;;8.23;5.95;;;;;;;7.27;100.00;100468.88;5047169;28;20051;-77
2022/10/10 01:58:41;;;;;;;9.18;6.05;;;;;;;7.32;100.00;100494.19;5049932;28;20049;-80
2022/10/10 02:01:14;;;;;;;8.90;6.57;;;;;;;7.29;100.00;100493.41;5049943;28;20040;-81
2022/10/10 02:03:46;;;;;;;8.55;6.10;;;;;;;7.22;100.00;100478.72;5047352;28;20056;-80
2022/10/10 02:06:24;;;;;;;13.38;6.97;;;;;;;7.20;100.00;100481.41;5053923;28;20474;-80
2022/10/10 02:08:57;;;;;;;7.72;6.38;;;;;;;7.14;100.00;100481.59;5045909;28;20390;-81
2022/10/10 02:11:27;;;;;;;8.13;6.10;;;;;;;7.14;100.00;100480.72;5051175;28;20049;-82
2022/10/10 02:14:05;;;;;;;9.15;5.97;;;;;;;6.97;100.00;100453.16;5051903;28;20409;-80
2022/10/10 02:16:37;;;;;;;7.75;5.85;;;;;;;7.09;100.00;100467.69;5049413;28;20481;-79
2022/10/10 02:19:11;;;;;;;11.02;5.78;;;;;;;6.95;100.00;100451.47;5054368;28;20132;-82
2022/10/10 02:21:40;;;;;;;8.45;6.10;;;;;;;7.03;100.00;100462.63;5050862;28;20572;-81
2022/10/10 02:24:09;;;;;;;8.13;5.80;;;;;;;7.04;100.00;100459.09;5050081;28;20049;-81
2022/10/10 02:26:38;;;;;;;10.32;6.03;;;;;;;7.06;100.00;100465.19;5047098;28;20051;-83
2022/10/10 02:29:21;;;;;;;7.97;5.68;;;;;;;6.95;100.00;100426.00;5048591;28;20061;-76
2022/10/10 02:31:56;;;;;;;8.38;5.65;;;;;;;7.16;100.00;100460.47;5050155;28;20139;-77
2022/10/10 02:34:28;;;;;;;8.43;5.70;;;;;;;7.01;100.00;100440.75;5047156;28;20045;-80
2022/10/10 02:36:59;;;;;;;10.23;5.53;;;;;;;7.06;100.00;100452.00;5046052;28;20064;-82
2022/10/10 02:39:30;;;;;;;9.63;5.60;;;;;;;7.06;100.00;100462.53;5028763;28;20056;-80
2022/10/10 02:41:57;;;;;;;13.00;6.00;;;;;;;7.02;100.00;100467.03;5049497;28;20045;-82
2022/10/10 02:44:24;;;;;;;8.35;5.47;;;;;;;7.00;100.00;100454.81;5044607;28;20131;-76
2022/10/10 02:46:51;;;;;;;8.35;5.40;;;;;;;6.99;100.00;100461.00;5046177;28;20053;-84
2022/10/10 02:49:32;;;;;;;8.50;5.93;;;;;;;6.93;100.00;100454.13;5046362;28;20056;-84
2022/10/10 02:52:00;;;;;;;8.75;5.93;;;;;;;6.77;100.00;100429.19;5048765;28;20246;-83
2022/10/10 02:54:26;;;;;;;9.52;6.10;;;;;;;6.93;100.00;100445.38;5051014;28;20450;-85
2022/10/10 02:56:53;;;;;;;8.52;6.18;;;;;;;6.93;100.00;100453.28;5046768;28;20094;-80
2022/10/10 02:59:20;;;;;;;13.00;8.55;;;;;;;6.89;100.00;100460.44;5054817;28;20136;-79
2022/10/10 03:01:47;;;;;;;17.38;10.10;;;;;;;6.78;100.00;100449.34;5049656;28;20041;-83
2022/10/10 03:04:13;;;;;;;16.02;9.88;;;;;;;6.81;100.00;100454.53;5050185;28;20055;-78
2022/10/10 03:06:40;;;;;;;14.45;9.00;;;;;;;6.61;100.00;100425.34;5044951;28;20054;-80
2022/10/10 03:09:07;;;;;;;15.73;8.82;;;;;;;6.74;100.00;100460.91;5050856;28;20049;-82
2022/10/10 03:11:33;;;;;;;14.55;9.27;;;;;;;6.55;100.00;100430.78;5048809;28;20044;-81
2022/10/10 03:14:00;;;;;;;14.85;9.63;;;;;;;6.64;100.00;100455.03;5047365;28;20244;-80
2022/10/10 03:16:26;;;;;;;14.70;9.43;;;;;;;6.67;100.00;100452.31;5047443;28;20053;-80
2022/10/10 03:18:53;;;;;;;12.70;8.90;;;;;;;6.69;100.00;100439.97;5044797;28;20506;-80
2022/10/10 03:21:19;;;;;;;12.60;8.77;;;;;;;6.79;100.00;100450.22;5051159;28;20055;-81
2022/10/10 03:23:46;;;;;;;15.18;8.80;;;;;;;6.77;100.00;100459.94;5046065;28;20116;-78
2022/10/10 03:26:12;;;;;;;13.88;7.85;;;;;;;6.54;100.00;100434.31;5049031;28;20045;-76
2022/10/10 03:28:39;;;;;;;10.98;7.47;;;;;;;6.69;100.00;100458.41;5052904;28;20059;-77
2022/10/10 03:31:06;;;;;;;12.68;7.95;;;;;;;6.66;100.00;100453.22;5053351;28;20077;-79
2022/10/10 03:33:33;;;;;;;12.40;7.88;;;;;;;6.52;100.00;100438.75;5058965;28;20061;-79
2022/10/10 03:36:00;;;;;;;11.13;6.95;;;;;;;6.64;100.00;100460.28;5057671;28;20055;-78
2022/10/10 03:38:27;;;;;;;12.18;6.72;;;;;;;6.42;100.00;100426.81;5053771;28;20045;-82
2022/10/10 03:40:53;;;;;;;9.90;6.95;;;;;;;6.68;100.00;100456.69;5051257;28;20548;-78
2022/10/10 03:43:20;;;;;;;10.45;6.70;;;;;;;6.54;100.00;100439.56;5047424;28;20049;-77
2022/10/10 03:45:47;;;;;;;11.88;7.07;;;;;;;6.65;100.00;100461.16;5044517;28;20056;-78
2022/10/10 03:48:14;;;;;;;9.90;6.80;;;;;;;6.62;100.00;100456.84;5049701;28;20049;-79
2022/10/10 03:50:41;;;;;;;9.18;6.70;;;;;;;6.64;100.00;100457.66;5041868;28;20491;-77
2022/10/10 03:53:08;;;;;;;11.20;6.53;;;;;;;6.74;100.00;100465.31;5049526;28;20045;-82
2022/10/10 03:55:34;;;;;;;9.90;5.97;;;;;;;6.79;100.00;100458.97;5048291;28;20053;-80
2022/10/10 03:58:01;;;;;;;8.65;6.30;;;;;;;6.85;100.00;100457.94;5049590;28;20053;-80
2022/10/10 04:00:27;;;;;;;8.77;6.38;;;;;;;6.68;100.00;100425.09;5041658;28;20049;-76
2022/10/10 04:02:54;;;;;;;9.35;6.10;;;;;;;6.73;100.00;100453.91;5043758;28;20044;-76
2022/10/10 04:05:20;;;;;;;10.50;6.22;;;;;;;6.73;100.00;100453.91;5048959;28;20062;-81
2022/10/10 04:07:47;;;;;;;10.02;6.28;;;;;;;6.69;100.00;100437.34;5050137;28;20044;-78
2022/10/10 04:10:14;;;;;;;10.20;6.20;;;;;;;6.64;100.00;100452.41;5054754;28;20052;-76
2022/10/10 04:12:40;;;;;;;10.68;6.20;;;;;;;6.48;100.00;100432.72;5049351;28;20049;-81
2022/10/10 04:15:07;;;;;;;10.02;6.18;;;;;;;6.57;100.00;100452.66;5044901;28;20040;-76
2022/10/10 04:17:34;;;;;;;10.60;6.22;;;;;;;6.55;100.00;100449.19;5050729;28;20087;-80
2022/10/10 04:20:00;;;;;;;10.13;6.93;;;;;;;6.53;100.00;100446.59;5046646;28;20045;-80
2022/10/10 04:22:27;;;;;;;10.48;7.20;;;;;;;6.53;100.00;100449.25;5046488;28;20053;-81
2022/10/10 04:24:54;;;;;;;12.15;7.32;;;;;;;6.51;100.00;100445.78;5045175;28;20045;-77
2022/10/10 04:27:20;;;;;;;14.27;9.23;;;;;;;6.49;100.00;100430.94;5047895;28;20059;-80
2022/10/10 04:29:47;;;;;;;16.85;10.43;;;;;;;6.29;100.00;100416.66;5045601;28;20053;-82
2022/10/10 04:32:13;;;;;;;17.40;10.55;;;;;;;6.37;100.00;100439.22;5049144;28;20059;-81
2022/10/10 04:34:40;;;;;;;15.35;9.88;;;;;;;6.36;100.00;100448.88;5047244;28;20055;-80
2022/10/10 04:37:06;;;;;;;14.77;9.80;;;;;;;6.23;100.00;100443.09;5043272;28;20063;-78
2022/10/10 04:39:33;;;;;;;15.68;10.00;;;;;;;6.32;100.00;100453.34;5050120;28;20471;-78
2022/10/10 04:42:00;;;;;;;15.82;8.52;;;;;;;6.32;100.00;100449.84;5047171;28;20155;-83
2022/10/10 04:44:27;;;;;;;13.75;8.40;;;;;;;6.33;100.00;100444.56;5047007;28;20111;-83
2022/10/10 04:46:53;;;;;;;17.75;8.60;;;;;;;6.38;100.00;100446.19;5048121;28;20176;-81
2022/10/10 04:49:20;;;;;;;13.30;8.60;;;;;;;6.37;100.00;100453.22;5046828;28;20139;-80
2022/10/10 04:51:47;;;;;;;17.27;8.93;;;;;;;6.36;100.00;100454.13;5048462;28;20074;-82
2022/10/10 04:54:13;;;;;;;14.60;9.43;;;;;;;6.32;100.00;100448.09;5048262;28;20051;-83
2022/10/10 04:56:41;;;;;;;11.52;7.70;;;;;;;6.22;100.00;100430.00;5044370;28;20424;-78
2022/10/10 04:59:09;;;;;;;13.32;7.93;;;;;;;6.39;100.00;100466.34;5044720;28;20118;-73
2022/10/10 05:01:35;;;;;;;15.80;8.63;;;;;;;6.38;100.00;100457.56;5048728;28;20057;-83
2022/10/10 05:04:03;;;;;;;14.57;8.32;;;;;;;6.22;100.00;100438.75;5047733;28;20045;-78
2022/10/10 05:06:29;;;;;;;12.73;7.57;;;;;;;6.29;100.00;100445.56;5042099;28;20044;-80
2022/10/10 05:08:56;;;;;;;13.20;7.97;;;;;;;6.45;100.00;100467.03;5056708;28;20703;-81
2022/10/10 05:11:23;;;;;;;13.50;7.75;;;;;;;6.43;100.00;100466.22;5052129;28;20056;-79
2022/10/10 05:13:49;;;;;;;11.02;7.50;;;;;;;6.42;100.00;100464.47;5056665;28;20041;-81
2022/10/10 05:16:16;;;;;;;12.38;8.05;;;;;;;6.45;100.00;100463.53;5061373;28;20083;-80
2022/10/10 05:18:43;;;;;;;12.63;7.38;;;;;;;6.27;100.00;100423.72;5055867;28;20071;-79
2022/10/10 05:21:10;;;;;;;10.70;6.78;;;;;;;6.45;100.00;100453.03;5053760;28;20516;-80
2022/10/10 05:23:37;;;;;;;11.35;7.60;;;;;;;6.48;100.00;100455.53;5051002;28;20391;-80
2022/10/10 05:26:04;;;;;;;11.40;7.03;;;;;;;6.41;100.00;100451.38;5049635;28;20048;-82
2022/10/10 05:28:33;;;;;;;10.60;7.10;;;;;;;6.41;100.00;100460.13;5049457;28;20060;-81
2022/10/10 05:31:01;;;;;;;9.52;6.93;;;;;;;6.35;100.00;100436.63;5050925;28;20102;-78
2022/10/10 05:33:28;;;;;;;9.57;6.80;;;;;;;6.24;100.00;100418.53;5051142;28;20069;-75
2022/10/10 05:36:05;;;;;;;17.52;7.13;;;;;;;6.45;100.00;100451.25;5048961;28;20140;-81
2022/10/10 05:38:32;;;;;;;12.32;7.13;;;;;;;6.32;100.00;100437.56;5050284;28;20048;-81
2022/10/10 05:40:59;;;;;;;10.80;6.82;;;;;;;6.42;100.00;100448.69;5048599;28;20056;-82
2022/10/10 05:43:25;;;;;;;11.63;6.85;;;;;;;6.52;100.00;100462.44;5048427;28;20524;-81
2022/10/10 05:45:52;;;;;;;10.95;7.10;;;;;;;6.60;100.00;100460.47;5049993;28;20051;-81
2022/10/10 05:48:18;;;;;;;11.15;6.55;;;;;;;6.68;100.00;100469.84;5061950;28;20059;-80
2022/10/10 05:50:48;;;;;;;13.82;7.47;;;;;;;6.60;100.00;100431.50;5051808;28;20119;-71
2022/10/10 05:53:15;;;;;;;11.55;6.88;;;;;;;6.64;100.00;100439.25;5062266;28;20064;-72
2022/10/10 05:55:43;;;;;;;12.88;7.03;;;;;;;6.69;100.00;100461.03;5055325;28;20068;-77
2022/10/10 05:58:12;;;;;;;10.38;7.13;;;;;;;6.51;100.00;100437.91;5035087;28;20588;-77
2022/10/10 06:00:39;;;;;;;9.95;6.60;;;;;;;6.56;100.00;100449.16;5046031;28;20072;-75
2022/10/10 06:03:07;;;;;;;12.57;7.20;;;;;;;6.55;100.00;100439.53;5053214;28;20169;-81
2022/10/10 06:05:35;;;;;;;15.57;7.18;;;;;;;6.46;100.00;100416.13;5047447;28;20051;-79
2022/10/10 06:08:02;;;;;;;25.05;8.88;;;;;;;6.59;100.00;100446.44;5035024;28;20868;-81
2022/10/10 06:10:42;;;;;;;11.60;7.13;;;;;;;6.68;100.00;100463.72;5050997;28;20201;-79
2022/10/10 06:13:10;;;;;;;14.00;7.68;;;;;;;6.52;100.00;100430.88;5050757;28;20428;-78
2022/10/10 06:15:37;;;;;;;11.05;7.03;;;;;;;6.57;100.00;100444.75;5049763;28;20094;-80
2022/10/10 06:18:05;;;;;;;13.90;7.32;;;;;;;6.72;100.00;100460.09;5046470;28;20061;-77
2022/10/10 06:20:39;;;;;;;12.77;7.65;;;;;;;6.64;100.00;100449.78;5048244;28;20136;-79
2022/10/10 06:23:07;;;;;;;16.50;7.47;;;;;;;6.80;100.00;100470.38;5049282;28;20049;-72
2022/10/10 06:25:35;;;;;;;12.70;7.90;;;;;;;6.85;100.00;100479.00;5050838;28;20040;-80
2022/10/10 06:28:06;;;;;;;12.93;7.38;;;;;;;6.89;100.00;100476.22;5051136;28;20052;-80
2022/10/10 06:30:36;;;;;;;13.88;6.97;;;;;;;6.79;100.00;100447.59;5050537;28;20117;-71
2022/10/10 06:33:03;;;;;;;13.63;7.43;;;;;;;6.92;100.00;100468.25;5059629;28;20080;-72
2022/10/10 06:35:29;;;;;;;16.35;7.55;;;;;;;6.92;100.00;100457.72;5063173;28;20051;-71
2022/10/10 06:37:56;;;;;;;14.77;6.90;;;;;;;7.11;100.00;100476.41;5064215;28;20041;-71
2022/10/10 06:40:23;;;;;;;16.92;7.68;;;;;;;7.18;100.00;100475.31;5060489;28;20055;-71
2022/10/10 06:42:51;;;;;;;11.10;7.97;;;;;;;7.29;100.00;100478.47;5065402;28;20033;-71
2022/10/10 06:45:19;;;;;;;11.40;7.78;;;;;;;7.41;100.00;100482.47;5061073;28;20048;-75
2022/10/10 06:47:46;;;;;;;12.27;7.63;;;;;;;7.54;100.00;100483.81;5050399;28;20147;-76
2022/10/10 06:50:13;;;;;;;14.68;8.43;;;;;;;7.64;100.00;100476.44;5044798;28;20133;-78
2022/10/10 06:52:40;;;;;;;14.63;8.07;;;;;;;7.91;100.00;100487.81;5042553;28;20059;-75
2022/10/10 06:55:07;;;;;;;13.32;7.57;;;;;;;8.14;100.00;100497.56;5039502;28;20053;-73
2022/10/10 06:57:34;;;;;;;15.07;8.52;;;;;;;8.39;100.00;100493.16;5042710;28;20041;-75
2022/10/10 07:00:00;;;;;;;21.50;8.55;;;;;;;8.67;100.00;100504.41;5036272;28;20051;-75
2022/10/10 07:02:27;;;;;;;17.25;7.90;;;;;;;8.84;100.00;100495.00;5045746;28;20069;-80
2022/10/10 07:04:54;;;;;;;12.15;7.15;;;;;;;9.14;100.00;100496.44;5043388;28;20065;-73
2022/10/10 07:07:20;;;;;;;12.95;7.72;;;;;;;9.32;98.92;100501.00;5051865;28;20045;-81
2022/10/10 07:09:47;;;;;;;14.80;8.50;;;;;;;9.28;97.20;100470.38;5043361;28;20228;-75
2022/10/10 07:12:13;;;;;;;17.23;10.00;;;;;;;9.48;95.76;100493.31;5028464;28;20409;-80
2022/10/10 07:14:40;;;;;;;22.23;8.43;;;;;;;9.41;94.27;100484.81;5043145;28;20141;-78
2022/10/10 07:17:07;;;;;;;19.70;8.38;;;;;;;9.47;94.50;100505.69;5044171;28;20069;-81
2022/10/10 07:19:35;;;;;;;14.95;8.50;;;;;;;9.44;95.03;100505.78;5041266;28;20059;-77
2022/10/10 07:22:02;;;;;;;19.63;8.80;;;;;;;9.32;94.51;100501.00;5038333;28;21898;-77
2022/10/10 07:24:28;;;;;;;17.05;7.97;;;;;;;9.23;95.42;100495.25;5037966;28;20045;-76
2022/10/10 07:26:55;;;;;;;15.88;7.95;;;;;;;9.43;95.20;100522.59;5037703;28;20076;-77
2022/10/10 07:29:30;;;;;;;18.92;8.70;;;;;;;9.38;93.99;100514.00;5043104;28;20049;-76
2022/10/10 07:31:57;;;;;;;14.10;8.43;;;;;;;9.22;94.76;100499.66;5044214;28;20563;-76
2022/10/10 07:34:23;;;;;;;20.75;8.82;;;;;;;9.33;94.42;100517.72;5043435;28;20046;-76
2022/10/10 07:36:50;;;;;;;23.15;8.30;;;;;;;9.17;95.15;100495.47;5040453;28;20071;-74
2022/10/10 07:39:21;;;;;;;20.60;8.65;;;;;;;9.33;94.93;100523.88;5040852;28;20108;-79
2022/10/10 07:41:48;;;;;;;19.67;8.57;;;;;;;9.42;94.73;100520.88;5039692;28;20048;-72
2022/10/10 07:44:15;;;;;;;19.65;8.55;;;;;;;9.69;93.25;100528.59;5042894;28;20045;-72
2022/10/10 07:46:42;;;;;;;16.50;8.88;;;;;;;9.85;91.89;100527.91;5042452;28;20053;-73
2022/10/10 07:49:09;;;;;;;14.23;8.07;;;;;;;10.02;91.82;100521.03;5035385;28;20424;-76
2022/10/10 07:51:36;;;;;;;22.08;9.23;;;;;;;10.07;91.04;100498.72;5040186;28;20060;-78
2022/10/10 07:54:03;;;;;;;19.30;9.48;;;;;;;10.39;89.49;100520.34;5038390;28;20145;-77
2022/10/10 07:56:30;;;;;;;18.17;8.63;;;;;;;10.57;89.18;100532.75;5039351;28;20052;-75
2022/10/10 07:58:57;;;;;;;12.43;7.32;;;;;;;10.50;87.04;100518.94;5038066;28;20044;-77
2022/10/10 08:01:23;;;;;;;15.18;7.32;;;;;;;10.70;88.29;100528.66;5040537;28;20066;-75
2022/10/10 08:03:50;;;;;;;12.98;7.57;;;;;;;11.00;87.95;100534.31;5038007;28;20041;-77
2022/10/10 08:06:17;;;;;;;18.50;7.05;;;;;;;11.46;86.29;100526.84;5038909;28;20132;-79
2022/10/10 08:08:49;;;;;;;20.20;7.18;;;;;;;11.82;83.56;100521.53;5036515;28;20543;-78
2022/10/10 08:11:20;;;;;;;17.25;6.82;;;;;;;11.84;81.50;100527.63;5039684;28;20428;-79
2022/10/10 08:13:47;;;;;;;14.25;7.18;;;;;;;11.75;82.00;100526.25;5038466;28;20102;-78
2022/10/10 08:16:14;;;;;;;11.73;7.78;;;;;;;11.72;82.54;100504.31;5039938;28;20132;-78
2022/10/10 08:18:41;;;;;;;18.15;6.50;;;;;;;11.91;80.93;100535.22;5042736;28;20061;-75
2022/10/10 08:21:10;;;;;;;15.15;6.97;;;;;;;11.71;81.75;100515.88;5040953;28;20067;-79
2022/10/10 08:23:37;;;;;;;21.52;9.25;;;;;;;11.65;82.23;100506.41;5039563;28;20188;-78
2022/10/10 08:26:07;;;;;;;10.27;7.35;;;;;;;11.66;82.29;100491.34;5041846;28;20401;-78
2022/10/10 08:28:35;;;;;;;12.98;8.30;;;;;;;11.71;81.90;100510.56;5040711;28;20060;-79
2022/10/10 08:31:13;;;;;;;12.95;8.35;;;;;;;11.61;82.05;100507.53;5037580;28;20064;-78
2022/10/10 08:33:41;;;;;;;13.13;8.70;;;;;;;11.56;82.78;100518.34;5037233;28;20124;-77
2022/10/10 08:36:12;;;;;;;11.40;8.10;;;;;;;11.65;82.93;100526.81;5040084;28;20052;-77
2022/10/10 08:38:38;;;;;;;13.07;8.20;;;;;;;11.68;83.73;100523.97;5042815;28;20041;-76
2022/10/10 08:41:17;;;;;;;13.68;8.07;;;;;;;11.86;83.36;100526.59;5041582;28;20317;-80
2022/10/10 08:43:51;;;;;;;13.15;8.63;;;;;;;12.01;83.28;100522.31;5042243;28;20056;-78
2022/10/10 08:46:26;;;;;;;13.52;8.13;;;;;;;12.21;82.50;100519.50;5040746;28;20045;-84
2022/10/10 08:48:57;;;;;;;13.75;9.02;;;;;;;12.24;81.89;100487.50;5043204;28;20147;-79
2022/10/10 08:51:27;;;;;;;14.10;8.85;;;;;;;12.49;80.52;100510.09;5040524;28;20481;-83
2022/10/10 08:53:58;;;;;;;15.45;8.98;;;;;;;12.43;80.30;100519.25;5041108;28;20063;-76
2022/10/10 08:56:31;;;;;;;;;;;;;;;12.37;81.97;100516.06;5042653;28;20045;-80
2022/10/10 08:59:26;;;;;;;12.13;8.88;;;;;;;12.28;81.96;100514.72;5038574;28;19929;-82
2022/10/10 09:02:03;;;;;;;15.10;10.70;;;;;;;12.28;82.76;100520.91;5023262;28;20129;-74
2022/10/10 09:04:45;;;;;;;15.13;9.68;;;;;;;12.29;83.01;100511.13;5041292;28;20587;-71
2022/10/10 09:07:29;;;;;;;16.55;9.75;;;;;;;12.17;82.95;100482.56;5039779;28;20072;-76
2022/10/10 09:10:14;;;;;;;16.63;9.80;;;;;;;12.30;83.72;100484.50;5043534;28;20075;-77
2022/10/10 09:12:59;;;;;;;14.68;9.43;;;;;;;12.72;83.16;100504.44;5040153;28;20060;-72
2022/10/10 09:15:36;;;;;;;16.08;9.80;;;;;;;12.91;81.51;100475.03;5040441;28;20048;-77
2022/10/10 09:18:05;;;;;;;15.35;10.68;;;;;;;13.29;80.84;100503.03;5039911;28;20049;-79
2022/10/10 09:20:58;;;;;;;18.75;10.27;;;;;;;13.48;80.62;100478.91;5042335;28;20437;-77
2022/10/10 09:23:46;;;;;;;15.88;10.55;;;;;;;13.83;78.83;100497.28;5042050;28;20059;-74
2022/10/10 09:26:16;;;;;;;13.68;9.50;;;;;;;13.97;78.45;100494.69;5038991;28;20144;-80
2022/10/10 09:28:54;;;;;;;16.08;9.88;;;;;;;14.01;78.59;100504.16;5040686;28;20136;-72
2022/10/10 09:31:41;;;;;;;16.33;10.27;;;;;;;13.92;79.44;100478.97;5037449;28;20495;-79
2022/10/10 09:34:07;;;;;;;19.23;10.23;;;;;;;14.12;78.72;100509.72;5038839;28;20132;-80
2022/10/10 09:36:36;;;;;;;18.35;9.70;;;;;;;14.06;79.34;100499.44;5042349;28;20137;-77
2022/10/10 09:39:19;;;;;;;14.50;9.35;;;;;;;14.10;78.23;100489.47;5027437;28;20061;-81
2022/10/10 09:42:03;;;;;;;12.35;8.77;;;;;;;14.25;78.38;100502.72;5049610;28;20049;-78
2022/10/10 09:44:31;;;;;;;14.55;8.90;;;;;;;14.23;78.18;100490.44;5030855;28;20052;-78
2022/10/10 09:46:58;;;;;;;15.45;9.65;;;;;;;14.45;77.43;100501.53;5052743;28;20083;-77
2022/10/10 09:49:28;;;;;;;12.85;8.60;;;;;;;14.53;76.42;100499.25;5053898;28;20057;-81
2022/10/10 09:51:55;;;;;;;13.93;9.50;;;;;;;14.47;76.23;100480.13;5050145;28;20045;-74
2022/10/10 09:54:23;;;;;;;11.88;8.18;;;;;;;14.46;77.50;100481.94;5053822;28;20674;-78
2022/10/10 09:56:56;;;;;;;15.02;9.05;;;;;;;14.71;76.63;100510.59;5046795;28;20037;-78
2022/10/10 09:59:36;;;;;;;17.90;9.07;;;;;;;14.73;76.44;100495.34;5047738;28;20530;-79
2022/10/10 10:02:11;;;;;;;;;;;;;;;14.62;76.65;100500.50;5044140;28;20052;-81
2022/10/10 10:04:37;;;;;;;11.93;8.10;;;;;;;14.65;77.24;100503.81;5042400;28;19925;-79
2022/10/10 10:07:24;;;;;;;12.73;8.10;;;;;;;14.71;77.03;100486.59;5040174;28;20495;-78
2022/10/10 10:09:55;;;;;;;15.65;8.98;;;;;;;14.91;76.02;100488.03;5046754;28;20052;-77
2022/10/10 10:12:36;;;;;;;11.90;8.63;;;;;;;15.04;75.10;100513.81;5047755;28;20056;-74
2022/10/10 10:15:06;;;;;;;16.63;8.70;;;;;;;14.86;76.65;100514.09;5046932;28;20148;-78
2022/10/10 10:17:32;;;;;;;12.80;8.73;;;;;;;14.81;76.46;100492.19;5050850;28;20059;-83
2022/10/10 10:19:59;;;;;;;12.05;8.88;;;;;;;14.88;76.76;100493.53;5049038;28;20089;-82
2022/10/10 10:22:33;;;;;;;16.15;8.77;;;;;;;15.04;75.77;100516.47;5047936;28;20073;-79
2022/10/10 10:25:29;;;;;;;12.30;8.60;;;;;;;15.14;75.48;100516.72;5048296;28;20045;-75
2022/10/10 10:28:09;;;;;;;17.52;8.93;;;;;;;15.12;76.00;100509.78;5058551;28;20055;-74
2022/10/10 10:30:40;;;;;;;14.90;8.75;;;;;;;15.22;76.10;100518.91;5066305;28;20109;-76
2022/10/10 10:33:25;;;;;;;;;;;;;;;15.33;74.01;100514.59;5047298;28;20049;-81
2022/10/10 10:36:40;;;;;;;13.20;9.10;;;;;;;15.49;74.28;100511.78;5044556;28;20004;-79
2022/10/10 10:39:25;;;;;;;18.40;9.85;;;;;;;15.24;75.29;100515.22;4975392;28;20051;-74
2022/10/10 10:42:04;;;;;;;11.85;8.77;;;;;;;15.40;75.60;100510.59;5046563;28;20740;-71
2022/10/10 10:44:41;;;;;;;14.88;8.82;;;;;;;15.69;74.84;100508.72;5048061;28;20596;-77
2022/10/10 10:47:34;;;;;;;13.50;8.73;;;;;;;15.97;73.71;100504.19;5038233;28;20050;-76
2022/10/10 10:50:00;;;;;;;15.05;8.40;;;;;;;16.02;73.54;100504.75;5038989;28;20104;-75
2022/10/10 10:52:40;;;;;;;15.32;9.20;;;;;;;15.77;74.01;100482.34;5055224;28;20063;-81
2022/10/10 10:55:28;;;;;;;13.27;8.38;;;;;;;15.75;74.78;100504.75;5045056;28;20052;-72
2022/10/10 10:58:18;;;;;;;13.27;9.18;;;;;;;15.69;75.22;100508.72;5050149;28;20079;-83
2022/10/10 11:01:14;;;;;;;13.52;9.52;;;;;;;15.62;76.18;100477.16;5050651;28;20144;-79
2022/10/10 11:04:02;;;;;;;20.65;9.00;;;;;;;15.73;76.59;100504.88;5049077;28;20045;-83
2022/10/10 11:07:00;;;;;;;14.25;9.00;;;;;;;15.77;77.12;100500.16;5049571;28;20108;-75
2022/10/10 11:10:01;;;;;;;14.38;8.32;;;;;;;15.92;76.70;100479.59;5047437;28;20033;-82
2022/10/10 11:13:10;;;;;;;13.20;8.68;;;;;;;16.07;76.87;100474.06;5044955;28;20567;-79
2022/10/10 11:15:52;;;;;;;14.00;9.15;;;;;;;16.31;76.39;100487.56;5045882;28;20083;-80
2022/10/10 11:18:44;;;;;;;14.45;9.45;;;;;;;16.51;76.19;100479.97;5051677;28;20059;-79
2022/10/10 11:21:25;;;;;;;16.40;9.07;;;;;;;16.65;74.03;100467.38;5050394;28;20159;-76
2022/10/10 11:23:56;;;;;;;13.43;8.65;;;;;;;16.90;73.46;100489.69;5040265;28;20450;-83
2022/10/10 11:26:29;;;;;;;14.32;9.73;;;;;;;16.79;73.12;100485.13;5041864;28;20135;-74
2022/10/10 11:29:08;;;;;;;15.98;8.45;;;;;;;16.72;73.88;100479.34;5044421;28;20377;-84
2022/10/10 11:32:13;;;;;;;14.40;8.98;;;;;;;16.73;75.60;100481.03;5042485;28;20049;-77
2022/10/10 11:34:51;;;;;;;14.32;9.02;;;;;;;16.79;74.83;100443.19;5031440;28;20086;-79
2022/10/10 11:37:25;;;;;;;13.75;9.20;;;;;;;16.87;75.00;100477.38;5040006;28;20049;-84
2022/10/10 11:39:56;;;;;;;14.43;9.00;;;;;;;16.88;75.66;100479.09;5039975;28;20053;-81